Weather at Nashville International Airport

Public forecast

Using degrees Fahrenheit for public forecast. Weather courtesy of forecast.io.

Current aviation weather report (METAR) for Nashville International Airport

2024/05/30 11:53 (retrieved 1 hour ago)

KBNA 301153Z 00000KT 10SM FEW250 16/13 A3021 RMK AO2 SLP224 T01560128 10161 20128 53016

Aviation forecast (TAF) for Nashville International Airport

2024/05/30 12:22 (retrieved 32 minutes ago)

TAF KBNA 301120Z 3012/3112 02003KT P6SM SCT250 FM301500 06006KT P6SM SCT080